Paris, Missouri
Current Conditions -  °F | °C
As of 11:15 AM on Sunday 21 Dec 2014 (Local Time) from KHAE Reporting Station
Overcast Overcast  
Wind Chill: 38°   Ceiling: 3200
Heat Index: 45°   Visibility: 10mi
Dew Point: 34°   Wind: 14mph
Humidity: 66%   Direction: 150°SSE
Pressure: 30.08"   Gusts: 18mph
Location:  39.48°N, 92°W
Report Text: KHAE 211715Z AUTO 15012G16KT 10SM OVC032 07/01 A3008 RMK AO2
Loading
Personal Weather Stations






























Interactive Weather Map New forecast layout! Learn more

10-Day Weather Forecast

Advertisements
Track Severe Weather on mobile